Observations for QUIMPER PLUGUFF, France (LFRQ)

LFRQ 221300Z AUTO 29010KT 9999 FEW028/// SCT034/// BKN042/// ///CB 06/05 Q1007 TEMPO 1300 SHGS BKN013CB 
LFRQ 221230Z AUTO 30016KT 270V330 8000 3100 RA FEW020/// BKN027/// BKN035/// ///CB 06/04 Q1008 TEMPO 29013G24KT 3000 SHGS BKN014TCU 
LFRQ 221200Z AUTO 27011KT 9999 FEW040/// SCT047/// BKN078/// ///CB 08/05 Q1008 TEMPO 3000 SHGS BKN014TCU
LFRQ 221130Z AUTO 29006KT 250V310 9999 SCT025/// BKN033/// BKN049/// ///TCU 07/04 Q1009 TEMPO 3000 SHGS SCT014CB BKN020 
LFRQ 221100Z AUTO 30008KT 270V330 9999 FEW035/// BKN043/// BKN049/// ///CB 08/04 Q1009 TEMPO 3000 SHGS BKN014TCU
LFRQ 221030Z AUTO 28005KT 9999 ///CB 07/04 Q1009 TEMPO 3000 SHGS BKN014TCU  
LFRQ 221000Z AUTO 28009KT 250V310 9999 FEW027 SCT130 BKN180 06/04 Q1010 TEMPO 4000 SHRA BKN014TCU   
LFRQ 220930Z AUTO 28006KT 9999 FEW030 06/04 Q1010 TEMPO 4000 SHRA BKN014TCU 
LFRQ 220900Z AUTO 28005KT 9999 ///TCU 06/03 Q1010 TEMPO 4000 SHRA BKN014TCU 
LFRQ 220830Z AUTO 30009KT CAVOK 05/02 Q1010 TEMPO 4000 SHRA BKN014TCU   
LFRQ 220800Z AUTO 31012KT 9999 FEW032/// SCT046/// BKN100/// ///TCU 05/02 Q1010 TEMPO 4000 SHRA BKN014TCU   
LFRQ 220730Z AUTO 33007KT 9999 FEW033/// SCT052/// BKN120/// ///TCU 05/02 Q1010 TEMPO 4000 SHRA BKN014TCU   
LFRQ 220700Z AUTO 29005KT 260V320 9999 FEW030 04/02 Q1010 TEMPO 4000 SHRA BKN014TCU 
LFRQ 220630Z AUTO 31007KT 9999 FEW043 05/02 Q1010 TEMPO 4000 SHRA BKN014TCU 
LFRQ 220600Z AUTO 31008KT 9999 FEW033/// ///TCU 05/02 Q1011 TEMPO 4000 SHRA BKN014TCU   
LFRQ 220530Z AUTO 31009KT 9999 FEW034/// SCT072/// BKN082/// ///TCU 06/03 Q1011 TEMPO 4000 SHRA BKN014TCU   
LFRQ 220500Z AUTO 31008KT 9999 FEW039/// SCT054/// ///TCU 05/02 Q1011   
LFRQ 220430Z AUTO 32008KT 9999 ///TCU 05/03 Q1011   
LFRQ 220400Z AUTO 31007KT 9999 FEW041 05/04 Q1011   
LFRQ 220330Z AUTO 32006KT 9999 SCT048 BKN062 BKN130 06/04 Q1011 
LFRQ 220300Z AUTO 35008KT 9999 -RA FEW042 SCT052 BKN062 06/05 Q1011 
LFRQ 220230Z AUTO 34013KT 9999 FEW018/// SCT028/// BKN037/// ///CB 06/05 Q1011  
LFRQ 220200Z AUTO 33013KT 8000 -RA SCT007/// BKN029/// BKN040/// ///CB 06/04 Q1011  
LFRQ 220130Z AUTO 23010KT 4000 RA BR SCT009/// BKN014/// BKN023/// ///CB 07/07 Q1011
LFRQ 220100Z AUTO 23011KT 9999 FEW012/// SCT021/// BKN028/// ///CB 07/07 Q1012  
LFRQ 220030Z AUTO 23012KT 7000 RA FEW014/// SCT025/// BKN031/// ///TCU 08/07 Q1013  
LFRQ 220000Z AUTO 24012KT 9999 -RA SCT018/// SCT026/// BKN038/// ///TCU 08/06 Q1014 
LFRQ 212330Z AUTO 23010KT 9999 SCT020/// BKN025/// BKN037/// ///TCU 08/06 Q1015 
LFRQ 212300Z AUTO 22007KT 9999 FEW020 BKN025 BKN058 07/06 Q1015 
LFRQ 212230Z AUTO 22005KT 9999 FEW020/// BKN052/// BKN064/// ///CB 07/06 Q1016  
LFRQ 212200Z AUTO 24006KT 200V260 9999 FEW013/// SCT035/// BKN044/// ///CB 07/06 Q1017 TEMPO 3000 RA OVC005 
LFRQ 212130Z AUTO 22005KT 190V260 9999 -RA BKN019/// BKN029/// BKN034/// ///CB 07/07 Q1017 TEMPO 3000 RA OVC005 
LFRQ 212100Z AUTO 18003KT 9000 FEW017/// BKN022/// BKN035/// ///CB 07/06 Q1018 TEMPO 24010KT 3000 RA OVC005 
LFRQ 212030Z AUTO 21005KT 9999 -RA FEW011/// SCT016/// BKN030/// ///TCU 07/06 Q1019 TEMPO 3000 RA OVC005
LFRQ 212000Z AUTO 21005KT 7000 RA SCT022/// BKN031/// BKN038/// ///TCU 07/05 Q1019 TEMPO NSW BKN010 OVC090  
LFRQ 211930Z AUTO 19006KT 9999 FEW019/// SCT026/// BKN035/// ///TCU 07/04 Q1019 TEMPO BKN010 OVC090 
LFRQ 211900Z AUTO 19005KT 9999 BKN023 BKN032 OVC190 06/03 Q1020 TEMPO BKN010 OVC090 
LFRQ 211830Z AUTO 19005KT 9999 BKN025 BKN210 06/03 Q1020 TEMPO BKN010 OVC090
LFRQ 211800Z AUTO 20005KT 9999 BKN024 OVC052 06/03 Q1021 TEMPO BKN010 OVC090
LFRQ 211730Z AUTO 19004KT 9999 FEW026 SCT031 BKN054 06/03 Q1021 TEMPO BKN010 OVC090 
LFRQ 211700Z AUTO 20004KT 9999 FEW034 OVC056 07/03 Q1022 BECMG BKN010 OVC090
LFRQ 211630Z AUTO 20004KT 9999 FEW025 OVC054 07/03 Q1022 BECMG BKN010 OVC090
LFRQ 211600Z AUTO 21005KT CAVOK 07/03 Q1022 BECMG BKN010 OVC090 
LFRQ 211530Z AUTO 23006KT 200V260 9999 FEW024 BKN052 07/03 Q1022 BECMG BKN010 OVC090
LFRQ 211500Z AUTO 21005KT 9999 BKN022 OVC052 08/03 Q1023 BECMG BKN010 OVC090
LFRQ 211430Z AUTO 21005KT 170V250 9999 FEW022 OVC050 08/03 Q1023 BECMG BKN010 OVC090
LFRQ 211400Z AUTO 24006KT 9999 OVC049 08/04 Q1023 BECMG BKN010 OVC090   
LFRQ 211330Z AUTO 24005KT 190V300 9999 OVC047 07/04 Q1024 BECMG BKN010 OVC090   
LFRQ 211300Z AUTO 23003KT 200V260 9999 OVC045 07/03 Q1024 NOSIG 
LFRQ 211230Z AUTO 25003KT 220V280 9999 OVC043 06/03 Q1024 NOSIG